createdAt,value
2022-11-02T00:04:40.221Z,101801.31
2022-11-02T00:09:49.674Z,101801.50
2022-11-02T00:14:52.506Z,101801.03
2022-11-02T00:19:55.573Z,101800.56
2022-11-02T00:25:05.825Z,101805.31
2022-11-02T00:30:11.442Z,101798.38
2022-11-02T00:45:54.102Z,101791.72
2022-11-02T00:56:17.664Z,101784.34
2022-11-02T01:01:20.785Z,101781.69
2022-11-02T01:06:24.033Z,101789.37
2022-11-02T01:11:32.166Z,101785.16
2022-11-02T01:16:35.228Z,101791.81
2022-11-02T01:21:38.073Z,101796.56
2022-11-02T01:26:46.189Z,101787.06
2022-11-02T01:31:50.032Z,101786.59
2022-11-02T01:36:53.609Z,101785.09
2022-11-02T01:42:01.879Z,101785.22
2022-11-02T01:47:09.757Z,101783.91
2022-11-02T01:52:15.935Z,101780.69
2022-11-02T01:57:24.253Z,101770.19
2022-11-02T02:13:08.104Z,101745.72
2022-11-02T02:18:20.394Z,101740.53
2022-11-02T02:24:03.274Z,101743.62
2022-11-02T02:29:23.073Z,101735.78
2022-11-02T02:34:32.328Z,101743.66
2022-11-02T02:39:43.851Z,101734.34
2022-11-02T02:45:00.284Z,101727.56
2022-11-02T02:50:10.203Z,101720.78
2022-11-02T03:00:41.081Z,101708.25
2022-11-02T03:05:44.042Z,101714.94
2022-11-02T03:26:50.937Z,101694.94
2022-11-02T03:32:00.123Z,101702.47
2022-11-02T03:37:12.634Z,101700.97
2022-11-02T03:42:25.295Z,101695.91
2022-11-02T03:47:31.416Z,101695.22
2022-11-02T03:52:38.104Z,101697.28
2022-11-02T04:03:11.894Z,101696.06
2022-11-02T04:08:18.637Z,101690.84
2022-11-02T04:13:21.397Z,101693.72
2022-11-02T04:18:29.474Z,101699.53
2022-11-02T04:23:32.259Z,101707.66
2022-11-02T04:28:35.063Z,101711.59
2022-11-02T04:33:44.312Z,101715.50
2022-11-02T04:44:11.616Z,101717.53
2022-11-02T04:49:14.528Z,101698.34
2022-11-02T04:54:17.929Z,101698.34
2022-11-02T04:59:26.911Z,101690.03
2022-11-02T05:04:29.781Z,101675.25
2022-11-02T05:09:32.553Z,101683.59
2022-11-02T05:14:41.650Z,101684.44
2022-11-02T05:19:44.413Z,101682.38
2022-11-02T05:24:47.240Z,101692.22
2022-11-02T05:29:55.623Z,101686.97
2022-11-02T05:34:58.380Z,101689.69
2022-11-02T05:40:01.156Z,101687.16
2022-11-02T05:45:10.672Z,101683.75
2022-11-02T06:00:54.582Z,101683.75
2022-11-02T06:05:58.210Z,101680.25
2022-11-02T06:11:05.198Z,101673.47
2022-11-02T06:16:14.823Z,101678.06
2022-11-02T06:21:19.307Z,101681.78
2022-11-02T06:31:43.141Z,101688.56
2022-11-02T06:36:46.738Z,101691.16
2022-11-02T06:41:49.543Z,101687.37
2022-11-02T06:46:57.793Z,101698.25
2022-11-02T06:52:00.796Z,101697.22
2022-11-02T06:57:03.627Z,101708.94
2022-11-02T07:02:12.373Z,101712.50
2022-11-02T07:07:15.221Z,101704.00
2022-11-02T07:12:22.876Z,101707.22
2022-11-02T07:17:32.540Z,101708.37
2022-11-02T07:28:04.980Z,101697.22
2022-11-02T07:33:08.138Z,101705.88
2022-11-02T07:54:16.886Z,101691.66
2022-11-02T07:59:20.542Z,101706.94
2022-11-02T08:04:23.352Z,101711.47
2022-11-02T08:09:31.491Z,101706.78
2022-11-02T08:14:34.362Z,101696.03
2022-11-02T08:19:38.147Z,101696.00
2022-11-02T08:24:46.840Z,101683.19
2022-11-02T08:34:52.639Z,101687.25
2022-11-02T08:51:01.157Z,101672.16
2022-11-02T08:56:09.486Z,101669.88
2022-11-02T09:06:22.304Z,101666.91
2022-11-02T09:11:33.628Z,101656.31
2022-11-02T09:16:41.261Z,101668.63
2022-11-02T09:21:45.260Z,101657.78
2022-11-02T09:32:12.537Z,101645.34
2022-11-02T09:37:15.548Z,101653.19
2022-11-02T09:42:26.332Z,101652.28
2022-11-02T09:48:15.470Z,101642.63
2022-11-02T09:53:12.171Z,101645.06
2022-11-02T10:03:52.173Z,101634.59
2022-11-02T10:14:23.609Z,101634.44
2022-11-02T10:19:34.967Z,101640.84
2022-11-02T10:24:42.989Z,101636.25
2022-11-02T10:29:58.782Z,101629.94
2022-11-02T10:35:25.373Z,101629.47
2022-11-02T10:40:45.682Z,101628.81
2022-11-02T10:51:41.750Z,101626.41
2022-11-02T10:56:45.650Z,101626.75
2022-11-02T11:02:06.057Z,101626.94
2022-11-02T11:07:17.795Z,101629.63
2022-11-02T11:12:26.733Z,101629.75
2022-11-02T11:23:11.302Z,101643.87
2022-11-02T11:28:24.441Z,101639.91
2022-11-02T11:33:27.287Z,101640.41
2022-11-02T11:43:50.166Z,101649.12
2022-11-02T11:48:56.323Z,101644.69
2022-11-02T11:59:47.606Z,101635.88
2022-11-02T12:10:22.110Z,101631.75
2022-11-02T12:15:40.466Z,101637.34
2022-11-02T12:37:40.247Z,101645.94
2022-11-02T12:48:21.802Z,101633.66
2022-11-02T12:53:45.479Z,101645.88
2022-11-02T12:58:49.825Z,101649.78
2022-11-02T13:03:59.267Z,101653.22
2022-11-02T13:09:11.914Z,101652.97
2022-11-02T13:14:19.018Z,101642.69
2022-11-02T13:19:26.818Z,101654.19
